Time;durP1;ratioP1;P1;durP2;ratioP2;P2;SDS_P1;SDS_P2;PMS_P1;PMS_P2;Temp;Humidity;BMP_temperature;BMP_pressure;BME280_temperature;BME280_humidity;BME280_pressure;Samples;Min_cycle;Max_cycle;Signal;HPM_P1;HPM_P2
2023/11/01 08:02:34;;;;;;;3.37;1.47;;;;;;;6.08;100.00;100020.59;5487458;23;15741503;-92
2023/11/01 08:05:01;;;;;;;2.77;1.60;;;;;;;6.18;100.00;100019.59;6107526;23;20025;-92
2023/11/01 08:07:27;;;;;;;21.87;16.17;;;;;;;6.18;100.00;100014.34;6112380;23;20028;-92
2023/11/01 08:09:54;;;;;;;7.97;4.70;;;;;;;6.23;100.00;100011.66;6111350;23;20049;-91
2023/11/01 08:12:21;;;;;;;3.27;2.03;;;;;;;6.16;100.00;100001.25;6129217;23;20032;-91
2023/11/01 08:14:50;;;;;;;2.70;1.47;;;;;;;6.15;100.00;99999.53;6105324;23;20022;-92
2023/11/01 08:17:17;;;;;;;1.63;1.00;;;;;;;6.13;100.00;99998.66;6129534;23;20073;-92
2023/11/01 08:19:44;;;;;;;1.13;0.80;;;;;;;6.16;100.00;100003.88;6105080;23;20024;-93
2023/11/01 08:22:12;;;;;;;2.83;1.40;;;;;;;6.21;100.00;100007.28;6104981;23;20025;-92
2023/11/01 08:24:40;;;;;;;2.33;1.33;;;;;;;6.27;100.00;100005.47;6105388;23;20083;-91
2023/11/01 08:27:07;;;;;;;1.80;1.10;;;;;;;6.25;100.00;100013.38;6105152;23;20342;-90
2023/11/01 08:29:35;;;;;;;1.23;1.10;;;;;;;6.33;100.00;100010.66;6129881;23;20017;-90
2023/11/01 08:32:02;;;;;;;4.97;1.20;;;;;;;6.23;100.00;100007.28;6105421;23;20028;-90
2023/11/01 08:34:29;;;;;;;1.80;1.20;;;;;;;6.40;100.00;100015.78;6105005;23;20029;-90
2023/11/01 08:36:56;;;;;;;2.47;1.10;;;;;;;6.44;100.00;100009.59;6104849;23;20026;-90
2023/11/01 08:39:24;;;;;;;4.47;1.20;;;;;;;6.67;100.00;100008.41;6129759;23;20017;-90
2023/11/01 08:41:51;;;;;;;2.67;1.20;;;;;;;6.71;100.00;100005.69;6105094;23;20056;-89
2023/11/01 08:44:18;;;;;;;2.53;1.10;;;;;;;6.86;100.00;100003.75;6129212;23;20048;-90
2023/11/01 08:46:45;;;;;;;1.67;1.03;;;;;;;6.85;100.00;100002.88;6105261;23;20022;-90
2023/11/01 08:49:13;;;;;;;1.40;1.00;;;;;;;6.98;100.00;100000.94;6104357;23;20072;-91
2023/11/01 08:51:41;;;;;;;1.90;0.90;;;;;;;6.96;100.00;100000.06;6129548;23;20029;-91
2023/11/01 08:54:11;;;;;;;2.20;1.07;;;;;;;7.06;100.00;100006.91;6129510;23;20028;-89
2023/11/01 08:56:38;;;;;;;1.00;0.80;;;;;;;7.13;100.00;99991.91;6129719;23;20108;-89
2023/11/01 08:59:05;;;;;;;2.37;0.90;;;;;;;7.18;100.00;99992.72;6104489;23;20092;-89
2023/11/01 09:01:33;;;;;;;1.00;0.90;;;;;;;7.14;100.00;100001.50;6128924;23;20026;-90
2023/11/01 09:04:00;;;;;;;2.40;0.90;;;;;;;7.12;100.00;99998.06;6104918;23;20434;-89
2023/11/01 09:06:29;;;;;;;1.00;0.90;;;;;;;7.31;100.00;99997.72;6129061;23;20402;-91
2023/11/01 09:08:56;;;;;;;1.10;0.77;;;;;;;7.37;100.00;99998.50;6129142;23;20025;-89
2023/11/01 09:11:25;;;;;;;2.90;1.03;;;;;;;7.42;100.00;99994.03;6104223;23;20056;-88
2023/11/01 09:13:53;;;;;;;0.83;0.60;;;;;;;7.51;100.00;99999.13;6104797;23;20069;-88
2023/11/01 09:16:20;;;;;;;0.63;0.50;;;;;;;7.51;99.50;99988.59;6104705;23;20053;-88
2023/11/01 09:18:47;;;;;;;1.67;0.70;;;;;;;7.56;99.93;99992.00;6104897;23;20029;-90
2023/11/01 09:21:14;;;;;;;2.00;0.70;;;;;;;7.80;100.00;99998.53;6104462;23;20021;-88
2023/11/01 09:23:41;;;;;;;1.07;0.40;;;;;;;7.94;97.54;99993.03;6104217;23;20022;-88
2023/11/01 09:26:09;;;;;;;2.87;0.97;;;;;;;8.07;95.95;99986.59;6104292;23;20025;-88
2023/11/01 09:28:36;;;;;;;0.57;0.57;;;;;;;8.22;92.22;99983.63;6104170;23;20479;-88
2023/11/01 09:31:03;;;;;;;1.37;0.80;;;;;;;8.58;97.43;99971.47;6105525;23;20049;-90
2023/11/01 09:33:30;;;;;;;1.37;0.80;;;;;;;8.78;94.05;99976.25;6105554;23;20342;-89
2023/11/01 09:35:57;;;;;;;2.13;0.93;;;;;;;9.05;89.90;99965.94;6129921;23;20022;-88
2023/11/01 09:38:24;;;;;;;1.50;0.80;;;;;;;9.28;90.74;99964.44;6104754;23;20025;-88
2023/11/01 09:40:51;;;;;;;4.72;1.55;;;;;;;9.52;88.73;99962.06;6105540;23;20022;-90
2023/11/01 09:43:22;;;;;;;2.22;1.00;;;;;;;9.70;85.03;99956.28;6129146;23;20079;-89
2023/11/01 09:45:49;;;;;;;1.30;1.17;;;;;;;9.69;81.40;99954.56;6130417;23;20025;-90
2023/11/01 09:48:16;;;;;;;1.85;1.00;;;;;;;9.76;82.39;99955.25;6105234;23;20121;-89
2023/11/01 09:50:43;;;;;;;3.28;1.10;;;;;;;9.97;83.83;99957.25;6106221;23;20520;-90
2023/11/01 09:53:10;;;;;;;2.63;0.95;;;;;;;10.09;82.19;99958.69;6105550;23;20029;-89
2023/11/01 09:55:37;;;;;;;2.05;1.20;;;;;;;10.23;82.99;99961.78;6105190;23;20032;-89
2023/11/01 09:58:56;;;;;;;2.42;1.27;;;;;;;10.23;82.04;99955.66;6128338;23;20026;-89
2023/11/01 10:02:23;;;;;;;3.17;1.20;;;;;;;10.37;82.42;99948.19;6172944;23;20024;-87
2023/11/01 10:04:52;;;;;;;4.50;1.50;;;;;;;10.58;80.66;99944.84;6110222;23;20025;-90
2023/11/01 10:07:18;;;;;;;2.72;1.50;;;;;;;10.73;80.54;99940.84;6133669;23;20077;-88
2023/11/01 10:09:46;;;;;;;3.45;1.60;;;;;;;10.76;80.60;99932.81;6133232;23;20326;-88
2023/11/01 10:12:13;;;;;;;2.92;1.60;;;;;;;10.84;81.35;99929.94;6134072;23;20021;-88
2023/11/01 10:14:40;;;;;;;3.53;1.60;;;;;;;10.88;79.14;99915.72;6134774;23;20112;-88
2023/11/01 10:17:07;;;;;;;2.20;1.55;;;;;;;10.52;80.96;99910.72;6135240;23;20027;-89
2023/11/01 10:19:34;;;;;;;3.53;1.40;;;;;;;10.44;81.86;99904.84;6111561;23;20033;-89
2023/11/01 10:22:01;;;;;;;3.78;1.30;;;;;;;10.62;83.29;99909.50;6137110;23;20044;-89
2023/11/01 10:24:29;;;;;;;2.38;1.40;;;;;;;10.65;82.96;99909.41;6134435;23;20033;-89
2023/11/01 10:26:57;;;;;;;3.30;1.73;;;;;;;10.79;84.15;99908.09;6134694;23;20040;-89
2023/11/01 10:29:26;;;;;;;3.17;1.58;;;;;;;11.04;82.30;99887.84;6110005;23;20031;-88
2023/11/01 10:31:58;;;;;;;3.03;1.70;;;;;;;10.91;83.54;99897.97;6110983;23;20028;-89
2023/11/01 10:34:29;;;;;;;3.03;1.92;;;;;;;11.14;82.01;99893.69;6134877;23;20025;-89
2023/11/01 10:36:58;;;;;;;2.88;1.63;;;;;;;11.32;80.55;99895.66;6110989;23;20100;-89
2023/11/01 10:39:25;;;;;;;3.13;1.67;;;;;;;11.34;78.93;99890.31;6110519;23;20025;-88
2023/11/01 10:41:54;;;;;;;2.25;1.25;;;;;;;11.49;80.34;99890.63;6135878;23;20029;-89
2023/11/01 10:44:22;;;;;;;5.05;2.10;;;;;;;11.61;81.30;99883.19;6111126;23;20025;-90
2023/11/01 10:46:50;;;;;;;2.47;1.75;;;;;;;11.62;80.52;99880.47;6111190;23;20068;-89
2023/11/01 10:49:17;;;;;;;2.58;1.52;;;;;;;11.61;83.22;99884.03;6135070;23;20041;-90
2023/11/01 10:51:44;;;;;;;4.32;2.15;;;;;;;11.71;80.01;99880.13;6110103;23;20352;-89
2023/11/01 10:54:12;;;;;;;2.65;1.40;;;;;;;11.84;81.03;99867.31;6135624;23;20024;-90
2023/11/01 10:56:39;;;;;;;4.13;2.08;;;;;;;11.89;79.65;99864.50;6112603;23;20471;-89
2023/11/01 10:59:11;;;;;;;2.33;1.58;;;;;;;11.71;77.79;99864.25;6137602;23;20449;-90
2023/11/01 11:02:16;;;;;;;2.10;1.40;;;;;;;11.74;79.18;99857.97;6113968;23;20021;-89
2023/11/01 11:04:57;;;;;;;2.22;1.40;;;;;;;11.67;81.18;99859.13;6113594;23;20027;-90
2023/11/01 11:07:38;;;;;;;3.67;1.70;;;;;;;11.63;80.47;99849.59;6112912;23;20072;-90
2023/11/01 11:10:24;;;;;;;3.17;1.58;;;;;;;11.73;82.61;99846.53;6112415;23;20021;-90
2023/11/01 11:13:16;;;;;;;2.10;1.60;;;;;;;11.78;82.82;99844.56;6136404;23;20029;-90
2023/11/01 11:15:51;;;;;;;1.95;1.05;;;;;;;11.72;81.38;99843.94;6136721;23;20036;-90
2023/11/01 11:18:21;;;;;;;3.00;2.03;;;;;;;11.24;81.30;99845.69;6136504;23;20388;-90
2023/11/01 11:20:53;;;;;;;2.42;1.48;;;;;;;11.50;83.66;99833.28;6113307;23;20390;-90
2023/11/01 11:23:22;;;;;;;99.10;37.67;;;;;;;11.66;83.56;99833.59;6112712;23;20100;-90
2023/11/01 11:25:51;;;;;;;14.30;7.18;;;;;;;11.89;82.36;99830.94;6113436;23;20109;-90
2023/11/01 11:28:18;;;;;;;58.90;40.17;;;;;;;11.97;85.05;99828.00;6113070;23;20027;-89
2023/11/01 11:30:45;;;;;;;9.07;6.82;;;;;;;11.91;84.30;99833.53;6137012;23;20017;-90
2023/11/01 11:33:13;;;;;;;4.05;2.00;;;;;;;12.04;84.20;99830.34;6138137;23;20048;-90
2023/11/01 11:35:41;;;;;;;2.75;1.80;;;;;;;12.38;84.62;99824.56;6113932;23;20108;-90
2023/11/01 11:38:29;;;;;;;1.75;1.50;;;;;;;12.63;82.88;99815.59;6137142;23;20080;-89
2023/11/01 11:41:37;;;;;;;4.88;1.70;;;;;;;12.93;78.08;99810.75;6113794;23;20028;-89
2023/11/01 11:44:12;;;;;;;3.53;1.63;;;;;;;12.71;77.99;99807.31;6105518;23;20025;-90
2023/11/01 11:46:44;;;;;;;3.83;1.85;;;;;;;12.94;80.30;99805.38;6137636;23;20017;-89
2023/11/01 11:49:37;;;;;;;2.83;1.30;;;;;;;12.99;79.58;99807.84;6137413;23;20473;-90
2023/11/01 11:52:07;;;;;;;3.63;1.40;;;;;;;13.11;81.18;99801.09;6163403;23;20021;-89
2023/11/01 11:54:35;;;;;;;4.43;1.70;;;;;;;13.24;79.66;99805.84;6113758;23;20453;-91
2023/11/01 11:57:07;;;;;;;1.90;1.50;;;;;;;13.29;79.76;99797.69;6113775;23;20344;-91
2023/11/01 11:59:35;;;;;;;3.40;3.10;;;;;;;13.37;81.81;99797.31;6114012;23;20032;-90
2023/11/01 12:02:13;;;;;;;4.35;2.22;;;;;;;13.15;81.10;99798.28;6135848;23;20021;-89
2023/11/01 12:05:25;;;;;;;2.40;1.38;;;;;;;13.24;81.60;99789.94;6135738;23;20017;-89
2023/11/01 12:09:52;;;;;;;3.47;2.60;;;;;;;13.34;83.76;99787.72;6186209;23;20356;-90
2023/11/01 12:14:05;;;;;;;2.72;1.77;;;;;;;13.52;81.18;99791.31;6078764;23;20117;-89
2023/11/01 12:18:30;;;;;;;2.42;1.40;;;;;;;13.40;83.25;99782.13;6068671;23;20038;-89
2023/11/01 12:22:12;;;;;;;3.70;1.60;;;;;;;13.15;85.24;99778.84;6075487;23;20418;-91
2023/11/01 12:25:03;;;;;;;2.60;1.63;;;;;;;13.01;87.85;99773.28;6062463;23;20034;-91
2023/11/01 12:27:31;;;;;;;4.95;2.83;;;;;;;12.85;89.24;99771.31;6127097;23;20048;-91
2023/11/01 12:30:00;;;;;;;2.42;1.70;;;;;;;12.74;90.68;99778.88;6109803;23;20295;-91
2023/11/01 12:32:33;;;;;;;3.05;2.47;;;;;;;12.82;92.00;99765.28;6160378;23;20028;-91
2023/11/01 12:35:05;;;;;;;5.07;4.45;;;;;;;12.82;93.82;99765.28;6135935;23;20031;-90
2023/11/01 12:37:35;;;;;;;3.92;2.40;;;;;;;13.00;92.57;99759.16;6135650;23;20024;-89
2023/11/01 12:40:10;;;;;;;3.80;2.08;;;;;;;12.98;89.93;99758.38;6110264;23;20457;-91
2023/11/01 12:42:39;;;;;;;3.08;1.65;;;;;;;13.11;91.28;99759.53;6135260;23;20032;-91
2023/11/01 12:45:08;;;;;;;3.65;1.70;;;;;;;13.00;92.63;99767.13;6110761;23;20581;-91
2023/11/01 12:47:52;;;;;;;2.80;1.55;;;;;;;13.11;92.19;99764.84;6110968;23;20091;-90
2023/11/01 12:50:21;;;;;;;5.10;3.63;;;;;;;12.98;94.07;99754.88;6135048;23;20104;-91
2023/11/01 12:52:48;;;;;;;5.15;3.13;;;;;;;12.97;95.75;99756.66;6122223;23;20073;-91
2023/11/01 12:55:18;;;;;;;3.78;2.78;;;;;;;13.02;96.49;99743.19;6121363;23;20025;-91
2023/11/01 12:57:54;;;;;;;4.28;2.38;;;;;;;13.24;96.32;99743.97;6140072;23;20033;-90
2023/11/01 13:00:25;;;;;;;4.45;2.10;;;;;;;13.47;94.89;99749.09;6115229;23;20456;-90
2023/11/01 13:02:52;;;;;;;5.20;2.80;;;;;;;13.53;92.67;99740.81;6139783;23;20021;-92
2023/11/01 13:05:21;;;;;;;4.82;2.72;;;;;;;13.42;93.05;99736.94;6113434;23;20021;-91
2023/11/01 13:07:49;;;;;;;3.88;1.95;;;;;;;13.38;92.23;99740.69;6110201;23;20029;-90
2023/11/01 13:10:16;;;;;;;3.88;1.90;;;;;;;13.27;94.99;99741.16;6133890;23;20029;-91
2023/11/01 13:12:47;;;;;;;2.47;1.88;;;;;;;13.36;92.50;99739.88;6135213;23;20029;-90
2023/11/01 13:15:15;;;;;;;4.20;2.30;;;;;;;13.28;93.53;99736.72;6109784;23;20472;-90
2023/11/01 13:17:43;;;;;;;6.43;2.72;;;;;;;13.18;94.37;99733.59;6109587;23;20547;-90
2023/11/01 13:20:10;;;;;;;3.15;2.13;;;;;;;12.99;96.89;99730.94;6111889;23;20089;-90
2023/11/01 13:22:37;;;;;;;4.28;2.40;;;;;;;12.96;98.08;99729.28;6135482;23;20021;-90
2023/11/01 13:25:05;;;;;;;7.40;4.32;;;;;;;13.07;98.34;99728.81;6110886;23;20025;-91
2023/11/01 13:27:31;;;;;;;3.55;2.22;;;;;;;12.91;99.48;99725.13;6110978;23;20108;-89
2023/11/01 13:29:58;;;;;;;14.48;10.75;;;;;;;12.96;99.51;99724.00;6135312;23;20025;-89
2023/11/01 13:32:26;;;;;;;6.43;2.92;;;;;;;12.88;99.74;99728.78;6115225;23;20013;-89
2023/11/01 13:34:54;;;;;;;5.93;2.83;;;;;;;12.75;100.00;99721.44;6138566;23;20029;-90
2023/11/01 13:37:21;;;;;;;8.27;6.35;;;;;;;12.70;100.00;99724.31;6113618;23;20025;-91
2023/11/01 13:39:48;;;;;;;4.65;3.42;;;;;;;12.71;100.00;99719.84;6115905;23;20024;-91
2023/11/01 13:42:16;;;;;;;3.83;2.65;;;;;;;12.66;100.00;99718.25;6164316;23;20029;-91
2023/11/01 13:44:43;;;;;;;3.17;2.30;;;;;;;12.66;100.00;99712.09;6140300;23;20028;-91
2023/11/01 13:47:11;;;;;;;4.05;1.90;;;;;;;12.61;100.00;99716.72;6115044;23;20021;-90
2023/11/01 13:49:41;;;;;;;2.40;1.77;;;;;;;12.53;100.00;99713.59;6138971;23;20021;-90
2023/11/01 13:52:11;;;;;;;4.35;1.90;;;;;;;12.45;100.00;99702.44;6115828;23;20032;-90
2023/11/01 13:54:39;;;;;;;5.30;2.85;;;;;;;12.52;100.00;99704.75;6115857;23;20047;-90
2023/11/01 13:57:06;;;;;;;5.30;2.63;;;;;;;12.43;100.00;99701.63;6137109;23;20112;-91
2023/11/01 13:59:33;;;;;;;3.38;2.28;;;;;;;12.40;100.00;99700.00;6114076;23;20029;-91
2023/11/01 14:02:00;;;;;;;3.47;2.08;;;;;;;12.47;100.00;99697.94;6138395;23;20017;-89
2023/11/01 14:04:27;;;;;;;3.70;1.75;;;;;;;12.28;100.00;99695.22;6138156;23;20029;-89
2023/11/01 14:06:55;;;;;;;3.53;2.05;;;;;;;12.26;100.00;99697.91;6113083;23;20049;-89
2023/11/01 14:09:22;;;;;;;3.45;2.17;;;;;;;12.32;100.00;99691.50;6118911;23;20028;-91
2023/11/01 14:11:51;;;;;;;3.67;2.63;;;;;;;12.26;100.00;99694.41;6121287;23;20043;-91
2023/11/01 14:14:21;;;;;;;4.05;2.03;;;;;;;12.18;100.00;99689.44;6173230;23;20048;-91
2023/11/01 14:16:48;;;;;;;4.25;2.10;;;;;;;12.15;100.00;99684.28;6123567;23;20298;-90
2023/11/01 14:19:15;;;;;;;5.18;2.20;;;;;;;12.20;100.00;99679.66;6139770;23;20059;-91
2023/11/01 14:21:42;;;;;;;2.92;1.75;;;;;;;12.14;100.00;99671.97;6114716;23;20083;-91
2023/11/01 14:24:09;;;;;;;2.22;2.03;;;;;;;12.16;100.00;99675.41;6138493;23;20031;-91
2023/11/01 14:26:37;;;;;;;4.47;1.70;;;;;;;12.15;100.00;99668.41;6137594;23;20046;-90
2023/11/01 14:29:05;;;;;;;2.67;2.20;;;;;;;12.20;100.00;99676.16;6112620;23;20025;-91
2023/11/01 14:31:32;;;;;;;2.83;2.20;;;;;;;12.26;100.00;99671.44;6111683;23;20021;-91
2023/11/01 14:33:59;;;;;;;4.40;1.98;;;;;;;12.18;100.00;99667.41;6136851;23;20048;-91
2023/11/01 14:36:28;;;;;;;5.22;2.08;;;;;;;12.21;100.00;99669.94;6160711;23;20021;-90
2023/11/01 14:38:55;;;;;;;3.47;1.98;;;;;;;12.16;100.00;99670.13;6110542;23;20064;-90
2023/11/01 14:41:25;;;;;;;3.10;2.10;;;;;;;12.18;100.00;99670.91;6134490;23;20021;-91
2023/11/01 14:43:52;;;;;;;4.55;2.50;;;;;;;12.27;100.00;99665.22;6160644;23;20027;-91
2023/11/01 14:46:20;;;;;;;5.07;2.78;;;;;;;12.23;100.00;99668.94;6111342;23;20076;-91
2023/11/01 14:48:49;;;;;;;4.07;2.40;;;;;;;12.14;100.00;99664.03;6111498;23;20025;-91
2023/11/01 14:51:17;;;;;;;5.50;3.28;;;;;;;12.15;100.00;99660.47;6160881;23;20044;-91
2023/11/01 14:53:48;;;;;;;67.70;41.60;;;;;;;12.21;100.00;99667.28;6111481;23;20088;-91
2023/11/01 14:56:18;;;;;;;;;;;;;;;12.25;100.00;99661.78;6113841;23;20032;-92
2023/11/01 14:58:48;;;;;;;6.30;5.70;;;;;;;12.16;100.00;99656.88;6110124;23;19916;-90
2023/11/01 15:01:15;;;;;;;3.72;2.45;;;;;;;12.16;100.00;99656.88;6110896;23;20021;-89
2023/11/01 15:03:43;;;;;;;5.72;2.20;;;;;;;12.19;100.00;99647.94;6134408;23;20025;-89
2023/11/01 15:12:17;;;;;;;3.95;2.00;;;;;;;12.08;100.00;99643.97;6188270;23;20028;-90
